sensor_id;sensor_type;location;lat;lon;timestamp;pressure;altitude;pressure_sealevel;temperature;humidity
50702;BME280;36670;50.094;8.496;2023-08-31T00:00:48;99665.59;;;18.78;58.74
50702;BME280;36670;50.094;8.496;2023-08-31T00:03:14;99667.31;;;18.88;58.76
50702;BME280;36670;50.094;8.496;2023-08-31T00:05:43;99657.84;;;19.15;58.02
50702;BME280;36670;50.094;8.496;2023-08-31T00:08:09;99647.16;;;19.17;58.49
50702;BME280;36670;50.094;8.496;2023-08-31T00:10:35;99652.75;;;19.26;58.38
50702;BME280;36670;50.094;8.496;2023-08-31T00:13:01;99650.63;;;19.49;57.45
50702;BME280;36670;50.094;8.496;2023-08-31T00:15:27;99662.97;;;19.48;57.73
50702;BME280;36670;50.094;8.496;2023-08-31T00:17:53;99664.47;;;19.45;57.66
50702;BME280;36670;50.094;8.496;2023-08-31T00:20:19;99661.59;;;19.10;58.04
50702;BME280;36670;50.094;8.496;2023-08-31T00:22:44;99666.72;;;19.08;57.81
50702;BME280;36670;50.094;8.496;2023-08-31T00:25:09;99664.13;;;19.21;57.56
50702;BME280;36670;50.094;8.496;2023-08-31T00:27:35;99670.88;;;18.80;58.91
50702;BME280;36670;50.094;8.496;2023-08-31T00:30:04;99667.06;;;19.07;58.76
50702;BME280;36670;50.094;8.496;2023-08-31T00:32:31;99667.59;;;19.35;57.82
50702;BME280;36670;50.094;8.496;2023-08-31T00:34:58;99674.00;;;19.27;58.19
50702;BME280;36670;50.094;8.496;2023-08-31T00:37:24;99676.78;;;19.27;58.26
50702;BME280;36670;50.094;8.496;2023-08-31T00:39:49;99680.91;;;19.38;57.57
50702;BME280;36670;50.094;8.496;2023-08-31T00:42:17;99689.59;;;19.10;57.92
50702;BME280;36670;50.094;8.496;2023-08-31T00:44:43;99682.91;;;19.29;57.92
50702;BME280;36670;50.094;8.496;2023-08-31T00:47:08;99683.69;;;19.21;57.79
50702;BME280;36670;50.094;8.496;2023-08-31T00:49:34;99683.66;;;19.03;58.45
50702;BME280;36670;50.094;8.496;2023-08-31T00:52:00;99681.19;;;19.10;58.32
50702;BME280;36670;50.094;8.496;2023-08-31T00:54:25;99687.78;;;19.06;58.66
50702;BME280;36670;50.094;8.496;2023-08-31T00:56:55;99689.75;;;19.05;58.20
50702;BME280;36670;50.094;8.496;2023-08-31T00:59:21;99684.84;;;19.11;58.04
50702;BME280;36670;50.094;8.496;2023-08-31T01:07:44;99685.84;;;19.15;58.04
50702;BME280;36670;50.094;8.496;2023-08-31T01:10:35;99683.16;;;19.01;57.86
50702;BME280;36670;50.094;8.496;2023-08-31T01:13:11;99681.72;;;19.13;57.92
50702;BME280;36670;50.094;8.496;2023-08-31T01:15:39;99675.44;;;19.16;57.49
50702;BME280;36670;50.094;8.496;2023-08-31T01:18:08;99675.94;;;19.18;57.32
50702;BME280;36670;50.094;8.496;2023-08-31T01:20:39;99682.00;;;19.02;57.90
50702;BME280;36670;50.094;8.496;2023-08-31T01:23:16;99681.16;;;18.93;57.99
50702;BME280;36670;50.094;8.496;2023-08-31T01:25:43;99687.09;;;18.91;58.26
50702;BME280;36670;50.094;8.496;2023-08-31T01:28:10;99680.50;;;18.96;58.18
50702;BME280;36670;50.094;8.496;2023-08-31T01:30:35;99684.78;;;19.02;57.85
50702;BME280;36670;50.094;8.496;2023-08-31T01:33:01;99671.31;;;18.96;58.04
50702;BME280;36670;50.094;8.496;2023-08-31T01:35:30;99681.72;;;19.13;57.32
50702;BME280;36670;50.094;8.496;2023-08-31T01:38:01;99686.66;;;19.16;57.54
50702;BME280;36670;50.094;8.496;2023-08-31T01:40:44;99696.84;;;19.12;57.62
50702;BME280;36670;50.094;8.496;2023-08-31T01:43:11;99693.03;;;19.07;58.15
50702;BME280;36670;50.094;8.496;2023-08-31T01:45:37;99698.81;;;19.11;58.38
50702;BME280;36670;50.094;8.496;2023-08-31T01:48:05;99705.03;;;19.08;58.06
50702;BME280;36670;50.094;8.496;2023-08-31T01:50:31;99708.34;;;19.10;57.83
50702;BME280;36670;50.094;8.496;2023-08-31T01:52:56;99697.94;;;18.93;58.73
50702;BME280;36670;50.094;8.496;2023-08-31T01:55:23;99712.44;;;19.04;58.35
50702;BME280;36670;50.094;8.496;2023-08-31T01:57:48;99707.09;;;18.85;58.32
50702;BME280;36670;50.094;8.496;2023-08-31T02:00:16;99703.03;;;18.91;59.07
50702;BME280;36670;50.094;8.496;2023-08-31T02:02:42;99703.88;;;18.91;59.07
50702;BME280;36670;50.094;8.496;2023-08-31T02:05:08;99700.22;;;18.91;59.01
50702;BME280;36670;50.094;8.496;2023-08-31T02:07:33;99699.09;;;18.92;59.19
50702;BME280;36670;50.094;8.496;2023-08-31T02:09:59;99693.16;;;18.93;59.16
50702;BME280;36670;50.094;8.496;2023-08-31T02:12:24;99699.16;;;19.18;58.24
50702;BME280;36670;50.094;8.496;2023-08-31T02:14:49;99701.63;;;19.20;58.31
50702;BME280;36670;50.094;8.496;2023-08-31T02:17:15;99706.56;;;19.23;58.49
50702;BME280;36670;50.094;8.496;2023-08-31T02:19:40;99704.63;;;19.23;58.47
50702;BME280;36670;50.094;8.496;2023-08-31T02:22:05;99703.97;;;19.35;57.67
50702;BME280;36670;50.094;8.496;2023-08-31T02:24:31;99702.50;;;19.29;58.36
50702;BME280;36670;50.094;8.496;2023-08-31T02:26:56;99708.25;;;19.41;57.87
50702;BME280;36670;50.094;8.496;2023-08-31T02:29:21;99713.50;;;19.34;58.17
50702;BME280;36670;50.094;8.496;2023-08-31T02:31:46;99710.25;;;19.50;57.82
50702;BME280;36670;50.094;8.496;2023-08-31T02:34:12;99720.94;;;19.39;57.62
50702;BME280;36670;50.094;8.496;2023-08-31T02:36:37;99706.44;;;19.45;57.70
50702;BME280;36670;50.094;8.496;2023-08-31T02:39:02;99715.78;;;19.15;58.35
50702;BME280;36670;50.094;8.496;2023-08-31T02:41:29;99709.34;;;19.14;58.33
50702;BME280;36670;50.094;8.496;2023-08-31T02:43:54;99710.88;;;19.29;58.12
50702;BME280;36670;50.094;8.496;2023-08-31T02:46:19;99722.22;;;19.15;58.36
50702;BME280;36670;50.094;8.496;2023-08-31T02:48:45;99727.59;;;19.03;58.86
50702;BME280;36670;50.094;8.496;2023-08-31T02:51:11;99724.31;;;18.69;59.76
50702;BME280;36670;50.094;8.496;2023-08-31T02:53:36;99732.25;;;18.85;59.26
50702;BME280;36670;50.094;8.496;2023-08-31T02:56:01;99730.28;;;18.85;59.20
50702;BME280;36670;50.094;8.496;2023-08-31T02:58:27;99727.41;;;18.99;58.58
50702;BME280;36670;50.094;8.496;2023-08-31T03:00:52;99728.22;;;19.00;58.71
50702;BME280;36670;50.094;8.496;2023-08-31T03:03:18;99721.31;;;18.97;58.84
50702;BME280;36670;50.094;8.496;2023-08-31T03:05:44;99725.47;;;18.77;59.26
50702;BME280;36670;50.094;8.496;2023-08-31T03:08:10;99722.41;;;18.56;59.70
50702;BME280;36670;50.094;8.496;2023-08-31T03:10:36;99729.66;;;18.88;58.97
50702;BME280;36670;50.094;8.496;2023-08-31T03:13:02;99723.53;;;18.86;58.83
50702;BME280;36670;50.094;8.496;2023-08-31T03:15:27;99723.44;;;18.91;58.95
50702;BME280;36670;50.094;8.496;2023-08-31T03:17:52;99718.34;;;19.02;58.47
50702;BME280;36670;50.094;8.496;2023-08-31T03:20:18;99718.97;;;18.59;59.59
50702;BME280;36670;50.094;8.496;2023-08-31T03:22:43;99720.63;;;18.60;59.77
50702;BME280;36670;50.094;8.496;2023-08-31T03:25:08;99728.13;;;18.82;59.29
50702;BME280;36670;50.094;8.496;2023-08-31T03:27:34;99724.06;;;18.57;59.51
50702;BME280;36670;50.094;8.496;2023-08-31T03:29:59;99729.53;;;18.39;60.00
50702;BME280;36670;50.094;8.496;2023-08-31T03:32:24;99730.16;;;18.59;59.65
50702;BME280;36670;50.094;8.496;2023-08-31T03:34:49;99736.28;;;18.70;59.32
50702;BME280;36670;50.094;8.496;2023-08-31T03:37:15;99731.47;;;18.62;59.41
50702;BME280;36670;50.094;8.496;2023-08-31T03:39:41;99729.38;;;18.67;59.65
50702;BME280;36670;50.094;8.496;2023-08-31T03:42:09;99734.72;;;18.55;59.50
50702;BME280;36670;50.094;8.496;2023-08-31T03:44:35;99737.16;;;18.48;59.41
50702;BME280;36670;50.094;8.496;2023-08-31T03:47:00;99745.88;;;18.23;60.49
50702;BME280;36670;50.094;8.496;2023-08-31T03:49:25;99743.47;;;18.62;59.77
50702;BME280;36670;50.094;8.496;2023-08-31T03:51:51;99745.13;;;18.63;59.56
50702;BME280;36670;50.094;8.496;2023-08-31T03:54:18;99741.34;;;18.59;58.85
50702;BME280;36670;50.094;8.496;2023-08-31T03:56:43;99749.72;;;18.59;59.25
50702;BME280;36670;50.094;8.496;2023-08-31T03:59:09;99756.47;;;18.58;58.70
50702;BME280;36670;50.094;8.496;2023-08-31T04:01:34;99754.53;;;18.36;59.34
50702;BME280;36670;50.094;8.496;2023-08-31T04:03:59;99764.81;;;18.27;59.16
50702;BME280;36670;50.094;8.496;2023-08-31T04:06:24;99764.59;;;18.00;60.20
50702;BME280;36670;50.094;8.496;2023-08-31T04:08:50;99759.97;;;18.18;59.71
50702;BME280;36670;50.094;8.496;2023-08-31T04:11:16;99771.84;;;18.47;59.29
50702;BME280;36670;50.094;8.496;2023-08-31T04:13:41;99775.41;;;18.38;59.34
50702;BME280;36670;50.094;8.496;2023-08-31T04:16:06;99783.13;;;18.19;59.76
50702;BME280;36670;50.094;8.496;2023-08-31T04:18:31;99787.53;;;18.34;59.53
50702;BME280;36670;50.094;8.496;2023-08-31T04:20:57;99786.72;;;18.33;59.53
50702;BME280;36670;50.094;8.496;2023-08-31T04:23:24;99776.16;;;18.07;59.35
50702;BME280;36670;50.094;8.496;2023-08-31T04:25:49;99787.09;;;18.18;59.41
50702;BME280;36670;50.094;8.496;2023-08-31T04:28:16;99786.19;;;18.31;58.70
50702;BME280;36670;50.094;8.496;2023-08-31T04:30:41;99788.34;;;18.34;58.66
50702;BME280;36670;50.094;8.496;2023-08-31T04:33:07;99779.34;;;18.37;58.37
50702;BME280;36670;50.094;8.496;2023-08-31T04:35:33;99795.16;;;18.42;58.64
50702;BME280;36670;50.094;8.496;2023-08-31T04:37:58;99792.69;;;18.18;59.39
50702;BME280;36670;50.094;8.496;2023-08-31T04:40:24;99789.25;;;18.21;58.99
50702;BME280;36670;50.094;8.496;2023-08-31T04:42:49;99802.56;;;18.01;59.22
50702;BME280;36670;50.094;8.496;2023-08-31T04:45:15;99799.41;;;17.66;59.48
50702;BME280;36670;50.094;8.496;2023-08-31T04:47:41;99806.09;;;17.93;59.03
50702;BME280;36670;50.094;8.496;2023-08-31T04:50:06;99805.78;;;17.95;59.22
50702;BME280;36670;50.094;8.496;2023-08-31T04:52:32;99811.53;;;18.12;58.63
50702;BME280;36670;50.094;8.496;2023-08-31T04:54:57;99812.59;;;18.02;58.53
50702;BME280;36670;50.094;8.496;2023-08-31T04:57:23;99819.81;;;18.03;59.07
50702;BME280;36670;50.094;8.496;2023-08-31T04:59:49;99817.47;;;17.83;59.03
50702;BME280;36670;50.094;8.496;2023-08-31T05:02:14;99825.34;;;17.95;58.96
50702;BME280;36670;50.094;8.496;2023-08-31T05:04:40;99822.09;;;18.15;58.71
50702;BME280;36670;50.094;8.496;2023-08-31T05:07:05;99819.47;;;18.19;58.49
50702;BME280;36670;50.094;8.496;2023-08-31T05:09:30;99824.59;;;18.03;58.43
50702;BME280;36670;50.094;8.496;2023-08-31T05:12:01;99827.06;;;18.04;58.13
50702;BME280;36670;50.094;8.496;2023-08-31T05:14:27;99838.56;;;17.89;58.95
50702;BME280;36670;50.094;8.496;2023-08-31T05:16:52;99837.13;;;18.05;58.71
50702;BME280;36670;50.094;8.496;2023-08-31T05:19:18;99842.97;;;18.18;58.57
50702;BME280;36670;50.094;8.496;2023-08-31T05:21:43;99845.59;;;18.37;57.94
50702;BME280;36670;50.094;8.496;2023-08-31T05:24:09;99843.63;;;18.37;58.19
50702;BME280;36670;50.094;8.496;2023-08-31T05:26:34;99852.41;;;18.45;58.46
50702;BME280;36670;50.094;8.496;2023-08-31T05:28:59;99854.06;;;18.46;58.28
50702;BME280;36670;50.094;8.496;2023-08-31T05:31:25;99854.59;;;18.34;58.56
50702;BME280;36670;50.094;8.496;2023-08-31T05:33:50;99861.53;;;18.36;58.68
50702;BME280;36670;50.094;8.496;2023-08-31T05:36:15;99860.78;;;18.67;57.98
50702;BME280;36670;50.094;8.496;2023-08-31T05:38:40;99859.44;;;18.65;58.24
50702;BME280;36670;50.094;8.496;2023-08-31T05:41:09;99856.72;;;18.51;58.57
50702;BME280;36670;50.094;8.496;2023-08-31T05:43:35;99861.06;;;18.57;58.37
50702;BME280;36670;50.094;8.496;2023-08-31T05:46:01;99858.94;;;18.63;58.03
50702;BME280;36670;50.094;8.496;2023-08-31T05:48:26;99868.25;;;18.95;58.04
50702;BME280;36670;50.094;8.496;2023-08-31T05:50:52;99869.22;;;19.21;57.78
50702;BME280;36670;50.094;8.496;2023-08-31T05:53:17;99867.41;;;19.57;57.65
50702;BME280;36670;50.094;8.496;2023-08-31T05:55:42;99868.25;;;20.68;56.47
50702;BME280;36670;50.094;8.496;2023-08-31T05:58:07;99863.59;;;21.54;55.34
50702;BME280;36670;50.094;8.496;2023-08-31T06:00:33;99865.31;;;22.48;53.15
50702;BME280;36670;50.094;8.496;2023-08-31T06:02:58;99854.63;;;23.92;50.83
50702;BME280;36670;50.094;8.496;2023-08-31T06:05:24;99866.34;;;24.18;49.23
50702;BME280;36670;50.094;8.496;2023-08-31T06:07:49;99869.66;;;24.90;47.78
50702;BME280;36670;50.094;8.496;2023-08-31T06:10:15;99874.44;;;25.17;46.68
50702;BME280;36670;50.094;8.496;2023-08-31T06:12:41;99866.75;;;25.30;45.43
50702;BME280;36670;50.094;8.496;2023-08-31T06:15:06;99870.41;;;25.47;44.72
50702;BME280;36670;50.094;8.496;2023-08-31T06:17:31;99869.56;;;25.78;45.08
50702;BME280;36670;50.094;8.496;2023-08-31T06:19:57;99871.25;;;26.15;44.30
50702;BME280;36670;50.094;8.496;2023-08-31T06:22:22;99874.13;;;26.54;42.75
50702;BME280;36670;50.094;8.496;2023-08-31T06:24:49;99870.56;;;26.02;41.52
50702;BME280;36670;50.094;8.496;2023-08-31T06:27:15;99874.16;;;26.93;42.27
50702;BME280;36670;50.094;8.496;2023-08-31T06:29:41;99868.44;;;27.55;41.46
50702;BME280;36670;50.094;8.496;2023-08-31T06:32:07;99873.81;;;26.75;41.54
50702;BME280;36670;50.094;8.496;2023-08-31T06:34:32;99873.00;;;27.17;41.04
50702;BME280;36670;50.094;8.496;2023-08-31T06:36:58;99879.47;;;27.61;40.50
50702;BME280;36670;50.094;8.496;2023-08-31T06:39:24;99879.09;;;27.62;40.37
50702;BME280;36670;50.094;8.496;2023-08-31T06:41:49;99875.28;;;26.88;40.84
50702;BME280;36670;50.094;8.496;2023-08-31T06:44:14;99886.75;;;26.76;40.83
50702;BME280;36670;50.094;8.496;2023-08-31T06:46:39;99886.75;;;26.76;40.77
50702;BME280;36670;50.094;8.496;2023-08-31T06:49:05;99878.69;;;26.58;39.92
50702;BME280;36670;50.094;8.496;2023-08-31T06:51:33;99879.69;;;25.63;41.76
50702;BME280;36670;50.094;8.496;2023-08-31T06:54:00;99886.50;;;25.94;41.69
50702;BME280;36670;50.094;8.496;2023-08-31T06:56:31;99891.56;;;25.53;41.64
50702;BME280;36670;50.094;8.496;2023-08-31T06:58:56;99893.59;;;24.80;43.11
50702;BME280;36670;50.094;8.496;2023-08-31T07:01:22;99899.13;;;23.74;44.84
50702;BME280;36670;50.094;8.496;2023-08-31T07:03:47;99908.84;;;23.51;44.93
50702;BME280;36670;50.094;8.496;2023-08-31T07:06:12;99908.13;;;23.30;46.26
50702;BME280;36670;50.094;8.496;2023-08-31T07:08:37;99909.31;;;23.41;45.96
50702;BME280;36670;50.094;8.496;2023-08-31T07:11:05;99904.47;;;23.29;46.07
50702;BME280;36670;50.094;8.496;2023-08-31T07:13:31;99908.75;;;23.14;46.14
50702;BME280;36670;50.094;8.496;2023-08-31T07:15:56;99911.75;;;22.97;46.62
50702;BME280;36670;50.094;8.496;2023-08-31T07:18:21;99908.38;;;23.37;46.57
50702;BME280;36670;50.094;8.496;2023-08-31T07:20:46;99915.97;;;23.03;46.17
50702;BME280;36670;50.094;8.496;2023-08-31T07:23:12;99924.41;;;23.03;46.40
50702;BME280;36670;50.094;8.496;2023-08-31T07:25:37;99915.06;;;22.57;47.35
50702;BME280;36670;50.094;8.496;2023-08-31T07:28:02;99925.47;;;22.05;47.65
50702;BME280;36670;50.094;8.496;2023-08-31T07:30:29;99932.66;;;21.94;48.33
50702;BME280;36670;50.094;8.496;2023-08-31T07:32:55;99926.16;;;22.02;48.10
50702;BME280;36670;50.094;8.496;2023-08-31T07:35:20;99920.44;;;21.90;48.82
50702;BME280;36670;50.094;8.496;2023-08-31T07:37:46;99922.41;;;22.19;49.21
50702;BME280;36670;50.094;8.496;2023-08-31T07:40:11;99921.94;;;22.68;48.98
50702;BME280;36670;50.094;8.496;2023-08-31T07:42:37;99925.22;;;22.91;48.90
50702;BME280;36670;50.094;8.496;2023-08-31T07:45:03;99927.38;;;23.07;47.80
50702;BME280;36670;50.094;8.496;2023-08-31T07:47:30;99932.41;;;23.01;47.90
50702;BME280;36670;50.094;8.496;2023-08-31T07:49:55;99929.03;;;22.87;47.76
50702;BME280;36670;50.094;8.496;2023-08-31T07:52:21;99935.16;;;22.89;47.50
50702;BME280;36670;50.094;8.496;2023-08-31T07:54:46;99938.00;;;23.22;47.36
50702;BME280;36670;50.094;8.496;2023-08-31T07:57:11;99921.72;;;22.52;47.98
50702;BME280;36670;50.094;8.496;2023-08-31T07:59:36;99942.13;;;22.70;47.69
50702;BME280;36670;50.094;8.496;2023-08-31T08:02:04;99945.81;;;22.83;47.97
50702;BME280;36670;50.094;8.496;2023-08-31T08:04:30;99944.72;;;23.09;47.37
50702;BME280;36670;50.094;8.496;2023-08-31T08:06:55;99951.00;;;23.14;47.03
50702;BME280;36670;50.094;8.496;2023-08-31T08:09:20;99948.00;;;22.77;47.05
50702;BME280;36670;50.094;8.496;2023-08-31T08:11:45;99951.91;;;22.64;47.54
50702;BME280;36670;50.094;8.496;2023-08-31T08:14:11;99958.44;;;22.98;47.19
50702;BME280;36670;50.094;8.496;2023-08-31T08:16:36;99964.31;;;23.26;46.33
50702;BME280;36670;50.094;8.496;2023-08-31T08:19:01;99960.56;;;23.01;45.67
50702;BME280;36670;50.094;8.496;2023-08-31T08:21:27;99955.25;;;23.21;45.56
50702;BME280;36670;50.094;8.496;2023-08-31T08:23:52;99968.34;;;23.38;46.38
50702;BME280;36670;50.094;8.496;2023-08-31T08:26:18;99963.88;;;23.37;45.91
50702;BME280;36670;50.094;8.496;2023-08-31T08:28:43;99965.97;;;23.73;45.01
50702;BME280;36670;50.094;8.496;2023-08-31T08:31:08;99973.13;;;23.83;45.34
50702;BME280;36670;50.094;8.496;2023-08-31T08:33:33;99977.06;;;23.57;45.53
50702;BME280;36670;50.094;8.496;2023-08-31T08:35:59;99976.25;;;23.57;45.97
50702;BME280;36670;50.094;8.496;2023-08-31T08:38:25;99976.56;;;24.13;45.45
50702;BME280;36670;50.094;8.496;2023-08-31T08:40:50;99976.47;;;24.10;44.97
50702;BME280;36670;50.094;8.496;2023-08-31T08:43:20;99981.09;;;23.68;45.78
50702;BME280;36670;50.094;8.496;2023-08-31T08:45:48;99977.63;;;24.09;45.66
50702;BME280;36670;50.094;8.496;2023-08-31T08:48:16;99984.75;;;23.69;44.07
50702;BME280;36670;50.094;8.496;2023-08-31T08:50:42;99987.78;;;23.64;44.78
50702;BME280;36670;50.094;8.496;2023-08-31T08:53:08;99998.06;;;23.47;44.52
50702;BME280;36670;50.094;8.496;2023-08-31T08:55:34;100000.94;;;23.05;45.55
50702;BME280;36670;50.094;8.496;2023-08-31T08:58:00;99996.50;;;23.38;45.66
50702;BME280;36670;50.094;8.496;2023-08-31T09:00:26;100004.28;;;23.53;44.71
50702;BME280;36670;50.094;8.496;2023-08-31T09:02:52;99998.88;;;22.72;45.56
50702;BME280;36670;50.094;8.496;2023-08-31T09:05:18;100003.41;;;23.07;46.50
50702;BME280;36670;50.094;8.496;2023-08-31T09:08:03;100005.38;;;23.61;45.84
50702;BME280;36670;50.094;8.496;2023-08-31T09:10:42;99999.19;;;23.67;44.80
50702;BME280;36670;50.094;8.496;2023-08-31T09:13:13;100004.59;;;23.39;45.22
50702;BME280;36670;50.094;8.496;2023-08-31T09:15:43;100003.59;;;23.44;45.40
50702;BME280;36670;50.094;8.496;2023-08-31T09:18:25;99992.00;;;23.58;44.71
50702;BME280;36670;50.094;8.496;2023-08-31T09:20:51;99990.34;;;24.02;45.44
50702;BME280;36670;50.094;8.496;2023-08-31T09:23:16;99994.19;;;23.98;44.27
50702;BME280;36670;50.094;8.496;2023-08-31T09:25:49;99996.78;;;24.03;44.13
50702;BME280;36670;50.094;8.496;2023-08-31T09:28:16;99985.88;;;24.26;44.19
50702;BME280;36670;50.094;8.496;2023-08-31T09:30:42;99997.75;;;24.19;43.96
50702;BME280;36670;50.094;8.496;2023-08-31T09:33:09;99990.88;;;23.83;44.67
50702;BME280;36670;50.094;8.496;2023-08-31T09:35:49;99983.19;;;23.59;44.73
50702;BME280;36670;50.094;8.496;2023-08-31T09:38:16;99990.66;;;24.13;44.43
50702;BME280;36670;50.094;8.496;2023-08-31T09:40:41;99984.47;;;23.95;44.56
50702;BME280;36670;50.094;8.496;2023-08-31T09:43:07;99989.28;;;24.32;44.08
50702;BME280;36670;50.094;8.496;2023-08-31T09:45:34;99984.56;;;24.24;44.90
50702;BME280;36670;50.094;8.496;2023-08-31T09:48:00;99986.91;;;24.46;44.26
50702;BME280;36670;50.094;8.496;2023-08-31T09:50:28;99997.16;;;24.39;44.07
50702;BME280;36670;50.094;8.496;2023-08-31T09:52:55;99984.88;;;24.59;44.31
50702;BME280;36670;50.094;8.496;2023-08-31T09:55:25;99983.66;;;25.26;43.53
50702;BME280;36670;50.094;8.496;2023-08-31T09:57:51;99979.81;;;25.62;43.41
50702;BME280;36670;50.094;8.496;2023-08-31T10:00:18;99976.50;;;26.04;42.32
50702;BME280;36670;50.094;8.496;2023-08-31T10:02:44;99968.41;;;25.14;41.68
50702;BME280;36670;50.094;8.496;2023-08-31T10:05:10;99982.00;;;24.96;42.33
50702;BME280;36670;50.094;8.496;2023-08-31T10:07:36;99980.69;;;24.94;42.59
50702;BME280;36670;50.094;8.496;2023-08-31T10:10:02;99986.91;;;24.71;42.62
50702;BME280;36670;50.094;8.496;2023-08-31T10:12:27;99989.13;;;24.41;43.68
50702;BME280;36670;50.094;8.496;2023-08-31T10:14:54;99986.41;;;23.82;43.31
50702;BME280;36670;50.094;8.496;2023-08-31T10:17:20;99985.63;;;24.07;43.65
50702;BME280;36670;50.094;8.496;2023-08-31T10:19:46;99982.56;;;24.36;43.85
50702;BME280;36670;50.094;8.496;2023-08-31T10:22:11;99978.00;;;24.19;43.31
50702;BME280;36670;50.094;8.496;2023-08-31T10:24:56;99970.81;;;24.47;43.22
50702;BME280;36670;50.094;8.496;2023-08-31T10:27:21;99973.50;;;24.56;44.39
50702;BME280;36670;50.094;8.496;2023-08-31T10:29:47;99975.59;;;24.71;43.03
50702;BME280;36670;50.094;8.496;2023-08-31T10:32:17;99991.72;;;24.09;44.13
50702;BME280;36670;50.094;8.496;2023-08-31T10:34:43;99975.97;;;24.69;43.22
50702;BME280;36670;50.094;8.496;2023-08-31T10:37:22;99970.69;;;24.68;42.89
50702;BME280;36670;50.094;8.496;2023-08-31T10:39:48;99973.16;;;24.98;43.03
50702;BME280;36670;50.094;8.496;2023-08-31T10:42:13;99976.13;;;25.17;43.21
50702;BME280;36670;50.094;8.496;2023-08-31T10:44:41;99968.88;;;24.76;43.31
50702;BME280;36670;50.094;8.496;2023-08-31T10:47:08;99983.03;;;25.04;43.11
50702;BME280;36670;50.094;8.496;2023-08-31T10:49:33;99984.28;;;24.78;43.48
50702;BME280;36670;50.094;8.496;2023-08-31T10:52:16;99979.75;;;25.02;42.95
50702;BME280;36670;50.094;8.496;2023-08-31T10:54:42;99979.06;;;25.33;42.57
50702;BME280;36670;50.094;8.496;2023-08-31T10:57:08;99975.44;;;25.49;42.65
50702;BME280;36670;50.094;8.496;2023-08-31T10:59:50;99979.81;;;25.18;41.74
50702;BME280;36670;50.094;8.496;2023-08-31T11:02:30;99973.63;;;25.56;42.05
50702;BME280;36670;50.094;8.496;2023-08-31T11:05:17;99975.53;;;25.24;41.55
50702;BME280;36670;50.094;8.496;2023-08-31T11:07:47;99979.50;;;24.66;42.69
50702;BME280;36670;50.094;8.496;2023-08-31T11:10:21;99977.06;;;24.28;42.56
50702;BME280;36670;50.094;8.496;2023-08-31T11:12:51;99968.09;;;24.63;43.01
50702;BME280;36670;50.094;8.496;2023-08-31T11:15:19;99974.56;;;24.51;42.84
50702;BME280;36670;50.094;8.496;2023-08-31T11:17:46;99971.94;;;23.72;42.97
50702;BME280;36670;50.094;8.496;2023-08-31T11:20:16;99974.69;;;24.42;43.00
50702;BME280;36670;50.094;8.496;2023-08-31T11:22:43;99971.69;;;24.76;42.57
50702;BME280;36670;50.094;8.496;2023-08-31T11:25:11;99967.22;;;25.15;42.85
50702;BME280;36670;50.094;8.496;2023-08-31T11:27:37;99963.88;;;25.26;41.63
50702;BME280;36670;50.094;8.496;2023-08-31T11:30:13;99967.59;;;25.42;41.96
50702;BME280;36670;50.094;8.496;2023-08-31T11:32:46;99960.56;;;25.52;41.38
50702;BME280;36670;50.094;8.496;2023-08-31T11:35:12;99956.94;;;25.99;41.35
50702;BME280;36670;50.094;8.496;2023-08-31T11:37:37;99954.41;;;26.10;40.37
50702;BME280;36670;50.094;8.496;2023-08-31T11:40:03;99961.72;;;26.11;38.94
50702;BME280;36670;50.094;8.496;2023-08-31T11:42:30;99959.03;;;25.70;39.30
50702;BME280;36670;50.094;8.496;2023-08-31T11:44:56;99957.75;;;26.00;39.89
50702;BME280;36670;50.094;8.496;2023-08-31T11:47:22;99960.81;;;26.07;39.43
50702;BME280;36670;50.094;8.496;2023-08-31T11:49:48;99962.22;;;25.53;39.98
50702;BME280;36670;50.094;8.496;2023-08-31T11:52:14;99954.03;;;25.96;39.36
50702;BME280;36670;50.094;8.496;2023-08-31T11:54:42;99946.09;;;25.69;39.84
50702;BME280;36670;50.094;8.496;2023-08-31T11:57:08;99948.56;;;25.27;40.88
50702;BME280;36670;50.094;8.496;2023-08-31T11:59:37;99945.81;;;25.90;41.00
50702;BME280;36670;50.094;8.496;2023-08-31T12:02:06;99942.13;;;26.38;40.23
50702;BME280;36670;50.094;8.496;2023-08-31T12:04:33;99935.13;;;26.87;39.52
50702;BME280;36670;50.094;8.496;2023-08-31T12:07:03;99933.00;;;26.45;38.44
50702;BME280;36670;50.094;8.496;2023-08-31T12:09:31;99928.78;;;26.38;38.38
50702;BME280;36670;50.094;8.496;2023-08-31T12:11:57;99925.53;;;26.20;38.09
50702;BME280;36670;50.094;8.496;2023-08-31T12:14:24;99935.91;;;26.13;38.85
50702;BME280;36670;50.094;8.496;2023-08-31T12:16:51;99937.72;;;26.21;37.45
50702;BME280;36670;50.094;8.496;2023-08-31T12:19:17;99933.34;;;25.92;36.70
50702;BME280;36670;50.094;8.496;2023-08-31T12:21:43;99930.13;;;26.09;37.11
50702;BME280;36670;50.094;8.496;2023-08-31T12:24:09;99923.66;;;26.44;35.85
50702;BME280;36670;50.094;8.496;2023-08-31T12:26:35;99920.66;;;27.12;35.99
50702;BME280;36670;50.094;8.496;2023-08-31T12:29:01;99920.97;;;27.06;35.49
50702;BME280;36670;50.094;8.496;2023-08-31T12:31:26;99930.00;;;26.37;34.61
50702;BME280;36670;50.094;8.496;2023-08-31T12:33:51;99933.84;;;26.29;34.86
50702;BME280;36670;50.094;8.496;2023-08-31T12:36:17;99939.44;;;25.78;35.56
50702;BME280;36670;50.094;8.496;2023-08-31T12:38:42;99937.03;;;26.28;36.27
50702;BME280;36670;50.094;8.496;2023-08-31T12:41:07;99929.81;;;25.34;35.68
50702;BME280;36670;50.094;8.496;2023-08-31T12:43:34;99922.34;;;24.98;35.94
50702;BME280;36670;50.094;8.496;2023-08-31T12:45:59;99927.63;;;24.99;35.89
50702;BME280;36670;50.094;8.496;2023-08-31T12:48:25;99926.41;;;25.57;36.68
50702;BME280;36670;50.094;8.496;2023-08-31T12:50:50;99925.47;;;25.53;35.77
50702;BME280;36670;50.094;8.496;2023-08-31T12:53:18;99929.50;;;25.24;36.39
50702;BME280;36670;50.094;8.496;2023-08-31T12:55:43;99934.28;;;25.35;35.90
50702;BME280;36670;50.094;8.496;2023-08-31T12:58:09;99929.72;;;24.74;37.18
50702;BME280;36670;50.094;8.496;2023-08-31T13:00:34;99932.56;;;24.62;35.86
50702;BME280;36670;50.094;8.496;2023-08-31T13:03:00;99934.31;;;24.79;36.37